Pagrindinis puslapis
METAR-TAF:

METAR-TAF

Oro uostai :

Sandane, Norvegija

platuma: 61-50N, ilguma: 006-07E, Aukštis: 6 m

Dabartinis oras

Ataskaita buvo paskelbta 25 minutes, ne 05:20 UTC
Vėjas 6 kt iš Rytų/Šiaurės Rytų
Temperatūra 15°C
Drėgmė 72%
Slėgis 1018 hPa
Matomumas 10 km arba daugiau
nėra debesų žemiau 1500 m ir nėra kamuolinių lietaus debesų

METAR: ENSD 220520Z 07006KT CAVOK 15/10 Q1018 RMK WIND RWY 26 08005KT WIND 1140FT 06005KT

Laikas: 07:45 (05:45 UTC)

Prognozė

Ataskaita buvo paskelbta 3 valandos ir 45 minutes, ne 02:00 UTC
Prognozė galioja nuo 22 metu 03 UTC su 22 metu 12 UTC
Vėjas 5 kt nuo kintamojo kryptimis
Matomumas 10 km arba daugiau
nėra debesų žemiau 1500 m ir nėra kamuolinių lietaus debesų

TAF: ENSD 220200Z 2203/2212 VRB05KT CAVOK

Orai ataskaitas ir orų prognozės (METAR, TAF).

turimą stotys yra geltonos ir raudonos taškus žemėlapyje.

Perkelti pele per norėdami pamatyti stoties vardą.

Tada spustelėkite, norėdami matyti oro stebėjimo ir prognozės.

Norėdami pakeisti žemėlapį: spustelėkite ant žalios mygtukų su juodo kryžiaus žemyn,; žalią mygtuką su brūkšneliu, jei norite nutolinti; arba žalių rodyklių gretimoms žemėlapius.


METAR-TAF: